Terminal Aerodrome Forecast
Issued by NWS Detroit/Pontiac, MI

Home | Current Version | Previous Version | Text Only | Print | Product List | Glossary On
Versions: 1 2 3 4 5 6 7 8 9 10 11 12
173
FTUS43 KDTX 240538
TAFFNT
TAF
KFNT 240538Z 2406/2506 20007KT P6SM SKC
     FM241600 22015G25KT P6SM OVC100
     FM242300 22015KT P6SM SCT045 OVC100=

USA.gov is the U.S. government's official web portal to all federal, state and local government web resources and services.